Time;durP1;ratioP1;P1;durP2;ratioP2;P2;SDS_P1;SDS_P2;PMS_P1;PMS_P2;Temp;Humidity;BMP_temperature;BMP_pressure;BME280_temperature;BME280_humidity;BME280_pressure;Samples;Min_cycle;Max_cycle;Signal;HPM_P1;HPM_P2
2022/04/17 00:02:02;;;;;;;2.00;1.13;;;14.00;43.40;;;;;;5155344;27;20360;-61
2022/04/17 00:04:28;;;;;;;1.40;0.82;;;14.00;43.30;;;;;;5137098;27;20046;-64
2022/04/17 00:06:54;;;;;;;2.08;0.90;;;14.00;43.30;;;;;;5136973;27;20406;-62
2022/04/17 00:09:20;;;;;;;1.45;0.63;;;14.00;43.40;;;;;;5155635;27;20038;-63
2022/04/17 00:11:46;;;;;;;2.08;0.90;;;14.00;43.30;;;;;;5136954;27;20446;-62
2022/04/17 00:14:12;;;;;;;2.30;0.93;;;14.00;43.30;;;;;;5136793;27;20098;-63
2022/04/17 00:16:40;;;;;;;2.28;0.90;;;14.00;43.30;;;;;;5136861;27;20043;-64
2022/04/17 00:19:06;;;;;;;1.27;0.95;;;14.00;43.30;;;;;;5155414;27;20031;-61
2022/04/17 00:21:33;;;;;;;1.92;0.95;;;14.00;43.30;;;;;;5155253;27;20073;-64
2022/04/17 00:23:58;;;;;;;2.28;1.50;;;13.90;43.30;;;;;;5136815;27;20110;-61
2022/04/17 00:26:27;;;;;;;2.15;0.98;;;13.90;43.30;;;;;;5154220;27;20533;-63
2022/04/17 00:28:53;;;;;;;2.00;1.40;;;13.90;43.30;;;;;;5136487;27;20042;-63
2022/04/17 00:31:18;;;;;;;2.58;1.40;;;13.90;43.30;;;;;;5136470;27;20046;-64
2022/04/17 00:33:44;;;;;;;2.42;1.42;;;13.90;43.30;;;;;;5154303;27;20129;-64
2022/04/17 00:36:09;;;;;;;1.65;0.73;;;13.90;43.30;;;;;;5154794;27;20035;-64
2022/04/17 00:38:35;;;;;;;1.30;1.02;;;13.90;43.30;;;;;;5136498;27;20046;-65
2022/04/17 00:41:01;;;;;;;2.00;1.27;;;13.90;43.30;;;;;;5136607;27;20146;-65
2022/04/17 00:43:30;;;;;;;1.77;1.05;;;13.90;43.30;;;;;;5136206;27;20440;-63
2022/04/17 00:45:56;;;;;;;2.55;1.13;;;13.90;43.30;;;;;;5136248;27;20038;-63
2022/04/17 00:48:26;;;;;;;1.63;0.93;;;13.90;43.30;;;;;;5136337;27;20046;-64
2022/04/17 00:50:54;;;;;;;1.58;1.08;;;13.90;43.30;;;;;;5154971;27;20386;-63
2022/04/17 00:53:21;;;;;;;2.75;1.08;;;13.90;43.30;;;;;;5136135;27;20047;-63
2022/04/17 00:55:48;;;;;;;1.63;1.20;;;13.90;43.30;;;;;;5136001;27;20533;-64
2022/04/17 00:58:14;;;;;;;1.92;1.40;;;13.90;43.30;;;;;;5135965;27;20054;-64
2022/04/17 01:00:41;;;;;;;1.80;0.93;;;13.90;43.30;;;;;;5153742;27;20083;-64
2022/04/17 01:03:07;;;;;;;1.40;1.10;;;13.90;43.40;;;;;;5153932;27;20097;-64
2022/04/17 01:05:33;;;;;;;2.10;1.20;;;13.80;43.30;;;;;;5135747;27;20102;-63
2022/04/17 01:07:59;;;;;;;1.92;1.10;;;13.80;43.30;;;;;;5135754;27;20043;-61
2022/04/17 01:10:25;;;;;;;1.50;1.30;;;13.80;43.30;;;;;;5135674;27;20034;-64
2022/04/17 01:12:53;;;;;;;2.45;1.98;;;13.90;43.40;;;;;;5154213;27;20045;-62
2022/04/17 01:15:19;;;;;;;2.45;1.50;;;13.90;43.40;;;;;;5135561;27;20031;-64
2022/04/17 01:17:45;;;;;;;2.15;1.33;;;13.90;43.40;;;;;;5154196;27;20043;-61
2022/04/17 01:20:16;;;;;;;1.75;1.20;;;13.80;43.40;;;;;;5135536;27;20503;-63
2022/04/17 01:22:49;;;;;;;;;;;13.80;43.40;;;;;;5154666;27;20038;-63
2022/04/17 01:28:02;;;;;;;2.58;1.85;;;13.80;43.40;;;;;;5135286;27;20512;-61
2022/04/17 01:30:27;;;;;;;2.95;1.35;;;13.80;43.40;;;;;;5135684;27;20038;-65
2022/04/17 01:32:53;;;;;;;2.60;1.92;;;13.80;43.40;;;;;;5135604;27;20561;-63
2022/04/17 01:35:22;;;;;;;3.80;1.52;;;13.80;43.40;;;;;;5135525;27;20505;-63
2022/04/17 01:37:49;;;;;;;1.73;1.10;;;13.80;43.50;;;;;;5135414;27;20050;-61
2022/04/17 01:40:15;;;;;;;2.20;1.40;;;13.80;43.50;;;;;;5153614;27;20038;-62
2022/04/17 01:42:41;;;;;;;1.90;1.35;;;13.80;43.50;;;;;;5135122;27;20050;-62
2022/04/17 01:45:09;;;;;;;2.55;1.60;;;13.80;43.50;;;;;;5134651;27;20038;-64
2022/04/17 01:47:34;;;;;;;3.70;2.15;;;13.70;43.50;;;;;;5153868;27;20488;-64
2022/04/17 01:50:00;;;;;;;1.33;1.00;;;13.70;43.50;;;;;;5135144;27;20114;-60
2022/04/17 01:52:27;;;;;;;3.55;1.52;;;13.70;43.50;;;;;;5135394;27;20054;-64
2022/04/17 01:54:52;;;;;;;1.88;1.20;;;13.80;43.50;;;;;;5134993;27;20073;-63
2022/04/17 01:57:18;;;;;;;2.05;1.65;;;13.70;43.50;;;;;;5152806;27;20215;-60
2022/04/17 01:59:43;;;;;;;2.55;1.55;;;13.80;43.60;;;;;;5153721;27;20038;-63
2022/04/17 02:02:09;;;;;;;2.38;1.67;;;13.70;43.50;;;;;;5153183;27;20061;-63
2022/04/17 02:04:37;;;;;;;2.00;1.25;;;13.70;43.50;;;;;;5135041;27;20051;-65
2022/04/17 02:07:05;;;;;;;2.80;1.65;;;13.70;43.60;;;;;;5153437;27;20118;-63
2022/04/17 02:09:31;;;;;;;3.63;1.60;;;13.70;43.60;;;;;;5117714;27;20031;-63
2022/04/17 02:11:57;;;;;;;2.67;1.50;;;13.70;43.60;;;;;;5153426;27;20035;-67
2022/04/17 02:14:23;;;;;;;2.40;1.50;;;13.70;43.60;;;;;;5134864;27;20044;-63
2022/04/17 02:16:48;;;;;;;2.53;1.60;;;13.70;43.60;;;;;;5134778;27;20114;-63
2022/04/17 02:19:14;;;;;;;2.42;1.60;;;13.60;43.60;;;;;;5135271;27;20049;-63
2022/04/17 02:21:40;;;;;;;3.08;1.55;;;13.70;43.60;;;;;;5153283;27;20039;-63
2022/04/17 02:24:06;;;;;;;2.20;1.30;;;13.60;43.60;;;;;;5134725;27;20042;-63
2022/04/17 02:26:32;;;;;;;1.95;1.63;;;13.60;43.60;;;;;;5134917;27;20042;-63
2022/04/17 02:29:02;;;;;;;2.10;1.48;;;13.60;43.60;;;;;;5134926;27;20074;-63
2022/04/17 02:31:28;;;;;;;2.30;1.40;;;13.70;43.70;;;;;;5134791;27;20333;-64
2022/04/17 02:33:54;;;;;;;1.95;1.30;;;13.60;43.60;;;;;;5134746;27;20058;-63
2022/04/17 02:36:21;;;;;;;1.73;1.33;;;13.60;43.60;;;;;;5152613;27;20038;-63
2022/04/17 02:38:46;;;;;;;3.83;1.70;;;13.60;43.70;;;;;;5134343;27;20041;-63
2022/04/17 02:41:12;;;;;;;1.85;1.42;;;13.60;43.70;;;;;;5134913;27;20079;-63
2022/04/17 02:43:37;;;;;;;2.95;1.42;;;13.60;43.70;;;;;;5153406;27;20465;-64
2022/04/17 02:46:03;;;;;;;1.80;1.40;;;13.50;43.70;;;;;;5134939;27;20038;-64
2022/04/17 02:48:29;;;;;;;3.08;1.80;;;13.60;43.70;;;;;;5153198;27;20482;-64
2022/04/17 02:50:55;;;;;;;2.28;1.80;;;13.60;43.70;;;;;;5157146;27;20118;-64
2022/04/17 02:53:21;;;;;;;2.22;1.63;;;13.60;43.70;;;;;;5157006;27;20612;-64
2022/04/17 02:55:47;;;;;;;1.88;1.40;;;13.50;43.70;;;;;;5138094;27;20050;-65
2022/04/17 02:58:14;;;;;;;4.07;2.00;;;13.50;43.80;;;;;;5138301;27;20067;-63
2022/04/17 03:06:15;;;;;;;2.95;1.60;;;13.50;43.80;;;;;;5156558;27;20090;-64
2022/04/17 03:08:44;;;;;;;2.85;1.40;;;13.50;43.80;;;;;;5138025;27;20091;-63
2022/04/17 03:11:10;;;;;;;1.60;1.27;;;13.40;43.80;;;;;;5157065;27;20035;-61
2022/04/17 03:13:36;;;;;;;3.03;2.08;;;13.50;43.90;;;;;;5138185;27;20432;-65
2022/04/17 03:16:02;;;;;;;2.05;1.55;;;13.50;43.80;;;;;;5156526;27;20038;-63
2022/04/17 03:18:28;;;;;;;1.70;1.35;;;13.50;43.90;;;;;;5137904;27;20043;-65
2022/04/17 03:20:53;;;;;;;2.67;1.50;;;13.50;43.90;;;;;;5137872;27;20046;-63
2022/04/17 03:23:19;;;;;;;2.40;1.58;;;13.40;43.80;;;;;;5156516;27;20038;-65
2022/04/17 03:25:48;;;;;;;2.50;1.30;;;13.40;43.80;;;;;;5156558;27;20027;-63
2022/04/17 03:28:13;;;;;;;2.95;1.50;;;13.40;43.80;;;;;;5138098;27;20489;-64
2022/04/17 03:30:39;;;;;;;1.75;1.20;;;13.40;43.80;;;;;;5137628;27;20042;-64
2022/04/17 03:33:04;;;;;;;2.20;1.33;;;13.40;43.80;;;;;;5156284;27;20031;-65
2022/04/17 03:35:31;;;;;;;2.65;1.70;;;13.40;43.80;;;;;;5137818;27;20371;-63
2022/04/17 03:37:57;;;;;;;3.30;1.63;;;13.40;43.80;;;;;;5138018;27;20118;-63
2022/04/17 03:40:23;;;;;;;2.92;1.65;;;13.40;43.90;;;;;;5120781;27;20053;-63
2022/04/17 03:42:49;;;;;;;2.03;1.50;;;13.40;43.90;;;;;;5137432;27;20042;-65
2022/04/17 03:45:16;;;;;;;2.55;1.60;;;13.40;44.60;;;;;;5137406;27;20039;-60
2022/04/17 03:47:43;;;;;;;3.05;1.65;;;13.30;43.90;;;;;;5156039;27;20042;-62
2022/04/17 03:50:12;;;;;;;2.70;1.77;;;13.30;43.80;;;;;;5155848;27;20390;-61
2022/04/17 03:55:33;;;;;;;3.38;1.85;;;13.40;43.90;;;;;;5130184;27;20386;-67
2022/04/17 03:57:59;;;;;;;2.58;1.95;;;13.30;43.90;;;;;;5129230;28;20544;-65
2022/04/17 04:00:25;;;;;;;2.42;1.52;;;13.30;43.90;;;;;;5129225;28;20043;-64
2022/04/17 04:02:51;;;;;;;1.98;1.73;;;13.30;43.90;;;;;;5129060;28;20102;-60
2022/04/17 04:05:18;;;;;;;1.95;1.70;;;13.30;43.90;;;;;;5128803;28;20071;-64
2022/04/17 04:07:44;;;;;;;2.95;1.95;;;13.30;43.90;;;;;;5129106;28;20143;-63
2022/04/17 04:10:12;;;;;;;1.70;1.60;;;13.30;44.00;;;;;;5128909;28;20036;-64
2022/04/17 04:12:38;;;;;;;2.40;1.67;;;13.30;44.00;;;;;;5129044;28;20039;-63
2022/04/17 04:15:06;;;;;;;3.22;2.17;;;13.20;43.90;;;;;;5128464;28;20047;-63
2022/04/17 04:17:32;;;;;;;2.42;1.58;;;13.20;44.00;;;;;;5129821;27;20440;-64
2022/04/17 04:19:58;;;;;;;2.22;1.63;;;13.20;44.00;;;;;;5129779;27;20043;-63
2022/04/17 04:22:24;;;;;;;2.35;1.55;;;13.20;44.10;;;;;;5128703;28;20376;-62
2022/04/17 04:24:50;;;;;;;3.22;1.60;;;13.20;44.00;;;;;;5128524;28;20047;-63
2022/04/17 04:30:02;;;;;;;3.63;2.03;;;13.20;44.10;;;;;;5129486;28;20538;-63
2022/04/17 04:32:27;;;;;;;2.53;1.60;;;13.20;44.20;;;;;;5129469;27;20173;-63
2022/04/17 04:34:59;;;;;;;2.35;1.58;;;13.20;44.20;;;;;;5128437;28;20456;-65
2022/04/17 04:37:25;;;;;;;3.17;1.70;;;13.10;44.10;;;;;;5128202;28;20047;-65
2022/04/17 04:39:51;;;;;;;2.40;2.00;;;13.10;44.20;;;;;;5129422;27;20046;-63
2022/04/17 04:42:19;;;;;;;2.08;1.73;;;13.10;44.20;;;;;;5128003;28;20047;-63
2022/04/17 04:44:47;;;;;;;3.05;2.00;;;13.10;44.20;;;;;;5129423;27;20398;-63
2022/04/17 04:47:13;;;;;;;2.42;1.73;;;13.10;45.00;;;;;;5128500;28;20043;-59
2022/04/17 04:49:39;;;;;;;2.15;1.95;;;13.10;44.20;;;;;;5128043;28;20043;-63
2022/04/17 04:52:07;;;;;;;3.60;2.38;;;13.00;44.20;;;;;;5129310;28;20039;-63
2022/04/17 04:54:36;;;;;;;3.33;2.25;;;13.00;44.30;;;;;;5127631;27;20056;-61
2022/04/17 04:57:02;;;;;;;2.10;1.80;;;13.00;44.20;;;;;;5129137;28;20035;-60
2022/04/17 04:59:27;;;;;;;2.92;1.90;;;13.00;44.20;;;;;;5129520;28;20039;-63
2022/04/17 05:01:53;;;;;;;2.60;2.08;;;13.00;44.20;;;;;;5127702;28;20505;-63
2022/04/17 05:04:20;;;;;;;2.50;1.48;;;13.00;44.20;;;;;;5129114;28;20039;-63
2022/04/17 05:06:46;;;;;;;3.35;2.22;;;13.00;44.20;;;;;;5115849;28;20089;-64
2022/04/17 05:09:12;;;;;;;2.55;2.05;;;13.00;44.20;;;;;;5115303;28;20066;-64
2022/04/17 05:11:38;;;;;;;2.60;1.83;;;13.00;44.20;;;;;;5114239;28;20039;-63
2022/04/17 05:14:09;;;;;;;3.90;2.10;;;13.00;44.20;;;;;;5115059;28;20047;-63
2022/04/17 05:16:36;;;;;;;2.90;2.53;;;13.00;44.20;;;;;;5114072;28;20499;-63
2022/04/17 05:19:33;;;;;;;2.92;2.22;;;13.00;44.10;;;;;;5113715;28;20483;-63
2022/04/17 05:21:48;;;;;;;3.63;2.10;;;13.00;44.10;;;;;;5114248;28;20382;-61
2022/04/17 05:24:16;;;;;;;3.22;2.35;;;13.00;44.10;;;;;;5113614;28;20495;-63
2022/04/17 05:26:42;;;;;;;3.20;1.92;;;13.00;44.10;;;;;;5114891;28;20053;-62
2022/04/17 05:29:08;;;;;;;2.45;1.77;;;13.00;44.10;;;;;;5113422;28;20551;-60
2022/04/17 05:31:33;;;;;;;3.05;1.85;;;13.00;44.10;;;;;;5115006;28;20036;-63
2022/04/17 05:33:59;;;;;;;2.15;1.90;;;13.00;44.10;;;;;;5113560;28;20499;-63
2022/04/17 05:36:25;;;;;;;3.65;2.38;;;13.00;44.10;;;;;;5113656;28;20040;-63
2022/04/17 05:38:53;;;;;;;3.00;1.90;;;13.00;44.10;;;;;;5113655;28;20301;-63
2022/04/17 05:41:20;;;;;;;2.78;1.90;;;13.00;44.10;;;;;;5114699;28;20032;-63
2022/04/17 05:43:47;;;;;;;3.75;1.88;;;13.00;44.10;;;;;;5113185;28;20073;-63
2022/04/17 05:46:12;;;;;;;2.33;2.13;;;13.00;44.10;;;;;;5113520;28;20039;-63
2022/04/17 05:48:38;;;;;;;4.35;2.47;;;13.00;44.10;;;;;;5114463;28;20387;-63
2022/04/17 05:51:04;;;;;;;2.53;2.05;;;13.00;44.00;;;;;;5113220;28;20043;-63
2022/04/17 05:53:29;;;;;;;1.80;1.70;;;13.00;44.00;;;;;;5112987;28;20062;-67
2022/04/17 05:55:58;;;;;;;2.10;1.88;;;13.00;44.00;;;;;;5113072;28;20422;-65
2022/04/17 05:58:23;;;;;;;2.97;2.30;;;13.10;44.00;;;;;;5114071;28;20043;-65
2022/04/17 06:00:49;;;;;;;2.85;2.28;;;13.10;44.10;;;;;;5113199;28;20048;-65
2022/04/17 06:03:15;;;;;;;3.28;2.63;;;13.00;44.00;;;;;;5113167;28;20031;-65
2022/04/17 06:05:42;;;;;;;3.35;2.35;;;13.10;44.00;;;;;;5113151;28;20043;-65
2022/04/17 06:08:07;;;;;;;2.22;1.95;;;13.10;44.00;;;;;;5114051;28;20475;-65
2022/04/17 06:10:33;;;;;;;3.97;2.03;;;13.10;44.00;;;;;;5112951;28;20093;-65
2022/04/17 06:12:59;;;;;;;4.15;2.40;;;13.10;44.10;;;;;;5112655;28;20036;-62
2022/04/17 06:15:24;;;;;;;2.78;2.35;;;13.10;44.90;;;;;;5112548;28;20047;-64
2022/04/17 06:17:53;;;;;;;2.33;2.13;;;13.10;44.10;;;;;;5112876;28;20046;-66
2022/04/17 06:20:18;;;;;;;3.58;2.33;;;13.00;44.10;;;;;;5113801;28;20489;-65
2022/04/17 06:22:44;;;;;;;3.92;2.70;;;13.10;44.10;;;;;;5112850;28;20071;-65
2022/04/17 06:25:13;;;;;;;3.05;2.60;;;13.10;44.10;;;;;;5112679;28;20047;-65
2022/04/17 06:30:23;;;;;;;2.65;2.28;;;13.10;44.10;;;;;;5130148;27;20402;-63
2022/04/17 06:32:50;;;;;;;2.97;2.45;;;13.10;44.10;;;;;;5128956;28;20111;-60
2022/04/17 06:35:19;;;;;;;3.20;2.42;;;13.10;44.10;;;;;;5128330;27;20039;-63
2022/04/17 06:40:28;;;;;;;2.40;2.20;;;13.10;44.10;;;;;;5152716;27;1163274;-64
2022/04/17 06:42:56;;;;;;;2.50;2.30;;;13.10;44.10;;;;;;5153081;27;20042;-63
2022/04/17 06:45:23;;;;;;;2.72;2.10;;;13.20;44.10;;;;;;5171876;27;20427;-61
2022/04/17 06:47:49;;;;;;;2.85;1.98;;;13.20;44.10;;;;;;5153076;27;20046;-64
2022/04/17 06:50:18;;;;;;;2.42;2.20;;;13.20;44.10;;;;;;5152872;27;20081;-59
2022/04/17 06:52:44;;;;;;;3.63;1.98;;;13.20;44.10;;;;;;5152951;27;20049;-63
2022/04/17 06:55:11;;;;;;;3.42;1.80;;;13.20;44.10;;;;;;5171347;27;20034;-64
2022/04/17 06:57:39;;;;;;;4.40;2.45;;;13.20;44.00;;;;;;5153090;27;20483;-64
2022/04/17 07:00:09;;;;;;;2.97;2.40;;;13.30;44.10;;;;;;5152717;27;20034;-63
2022/04/17 07:02:35;;;;;;;3.53;2.15;;;13.20;44.00;;;;;;5148607;27;20039;-64
2022/04/17 07:05:01;;;;;;;3.17;2.15;;;13.30;44.10;;;;;;5150547;27;20031;-62
2022/04/17 07:07:26;;;;;;;2.80;2.30;;;13.30;44.00;;;;;;5149412;27;20046;-63
2022/04/17 07:09:52;;;;;;;2.25;1.90;;;13.30;44.00;;;;;;5131856;27;20428;-63
2022/04/17 07:12:18;;;;;;;2.70;2.50;;;13.30;43.90;;;;;;5131783;27;20126;-63
2022/04/17 07:14:44;;;;;;;2.45;2.13;;;13.30;43.90;;;;;;5149066;27;20047;-63
2022/04/17 07:17:09;;;;;;;3.28;2.08;;;13.40;44.00;;;;;;5162963;27;20099;-65
2022/04/17 07:19:35;;;;;;;2.00;1.73;;;13.40;43.90;;;;;;5131640;27;20043;-66
2022/04/17 07:22:00;;;;;;;2.67;2.15;;;13.30;43.80;;;;;;5150080;27;20034;-65
2022/04/17 07:24:26;;;;;;;2.92;1.80;;;13.40;43.90;;;;;;5150111;27;20366;-65
2022/04/17 07:26:53;;;;;;;3.97;2.42;;;13.40;43.80;;;;;;5131493;27;20042;-62
2022/04/17 07:29:22;;;;;;;3.05;1.85;;;13.40;43.80;;;;;;5150275;27;20049;-62
2022/04/17 07:31:50;;;;;;;3.38;1.70;;;13.50;43.80;;;;;;5131569;27;20065;-62
2022/04/17 07:34:18;;;;;;;3.13;2.50;;;13.50;43.70;;;;;;5131929;27;20047;-65
2022/04/17 07:36:43;;;;;;;1.92;1.73;;;13.50;43.70;;;;;;5132321;27;20423;-65
2022/04/17 07:39:09;;;;;;;2.95;1.67;;;13.50;43.70;;;;;;5149628;27;20051;-62
2022/04/17 07:41:35;;;;;;;3.35;1.73;;;13.50;43.70;;;;;;5131360;27;20043;-67
2022/04/17 07:44:00;;;;;;;2.78;1.90;;;13.50;43.60;;;;;;5131286;27;20063;-62
2022/04/17 07:46:26;;;;;;;2.20;2.00;;;13.50;43.50;;;;;;5150286;27;20038;-65
2022/04/17 07:48:51;;;;;;;2.15;1.60;;;13.50;43.50;;;;;;5131779;27;20438;-63
2022/04/17 07:51:17;;;;;;;2.85;1.88;;;13.60;43.50;;;;;;5119873;27;20126;-65
2022/04/17 07:53:43;;;;;;;2.35;1.45;;;13.60;43.40;;;;;;5117543;27;20091;-65
2022/04/17 07:56:10;;;;;;;2.33;1.88;;;13.60;43.40;;;;;;5135594;27;20046;-63
2022/04/17 07:58:37;;;;;;;2.28;1.90;;;13.60;43.40;;;;;;5117083;27;20043;-62
2022/04/17 08:01:11;;;;;;;2.38;1.65;;;13.60;43.40;;;;;;5135660;27;20130;-64
2022/04/17 08:03:46;;;;;;;2.80;1.70;;;13.60;43.30;;;;;;5135645;27;20142;-62
2022/04/17 08:06:15;;;;;;;2.53;1.73;;;13.70;43.20;;;;;;5117401;27;20035;-64
2022/04/17 08:08:42;;;;;;;1.95;1.17;;;13.70;43.20;;;;;;5116953;27;20043;-65
2022/04/17 08:11:08;;;;;;;1.80;1.50;;;13.70;43.20;;;;;;5135538;27;20031;-65
2022/04/17 08:13:35;;;;;;;3.15;1.75;;;13.70;43.10;;;;;;5117045;27;20050;-62
2022/04/17 08:16:02;;;;;;;3.05;1.55;;;13.70;43.80;;;;;;5117139;27;20390;-65
2022/04/17 08:18:28;;;;;;;3.95;1.77;;;13.70;43.10;;;;;;5135344;27;20050;-65
2022/04/17 08:20:54;;;;;;;2.55;1.23;;;13.70;43.00;;;;;;5116821;27;20035;-67
2022/04/17 08:23:19;;;;;;;2.83;1.33;;;13.80;43.00;;;;;;5135043;27;20031;-62
2022/04/17 08:25:46;;;;;;;2.33;1.40;;;13.80;42.90;;;;;;5117091;27;20038;-67
2022/04/17 08:28:12;;;;;;;2.28;1.80;;;13.80;42.80;;;;;;5116604;27;20103;-66
2022/04/17 08:30:38;;;;;;;2.53;1.55;;;13.80;42.70;;;;;;5135393;27;20071;-65
2022/04/17 08:33:05;;;;;;;2.72;1.30;;;13.90;42.70;;;;;;5135066;27;20067;-62
2022/04/17 08:35:32;;;;;;;1.95;1.50;;;13.90;42.70;;;;;;5134990;27;20049;-65
2022/04/17 08:38:00;;;;;;;2.67;1.55;;;13.90;42.60;;;;;;5134868;27;20046;-65
2022/04/17 08:40:26;;;;;;;3.05;1.30;;;13.90;42.60;;;;;;5116215;27;20062;-65
2022/04/17 08:42:53;;;;;;;1.67;0.98;;;13.90;42.60;;;;;;5116656;27;20046;-63
2022/04/17 08:45:19;;;;;;;1.95;1.27;;;14.00;42.60;;;;;;5134825;27;20513;-63
2022/04/17 08:47:45;;;;;;;1.55;1.10;;;14.00;42.50;;;;;;5099851;27;20503;-62
2022/04/17 08:50:17;;;;;;;1.67;1.23;;;14.00;42.40;;;;;;5116276;27;20172;-66
2022/04/17 08:52:46;;;;;;;1.67;1.00;;;14.00;42.40;;;;;;5116539;27;20118;-66
2022/04/17 08:55:12;;;;;;;2.97;1.35;;;14.10;42.40;;;;;;5134616;27;20050;-65
2022/04/17 08:57:38;;;;;;;2.78;1.83;;;14.10;42.30;;;;;;5116289;27;20058;-64
2022/04/17 09:00:08;;;;;;;1.83;1.10;;;14.10;42.30;;;;;;5134516;27;20039;-62
2022/04/17 09:02:34;;;;;;;3.45;1.40;;;14.20;42.30;;;;;;5133493;27;20079;-65
2022/04/17 09:05:04;;;;;;;2.15;1.58;;;14.20;42.20;;;;;;5116040;27;20043;-65
2022/04/17 09:07:39;;;;;;;2.08;1.30;;;14.20;42.10;;;;;;5115856;27;20039;-65
2022/04/17 09:10:05;;;;;;;2.20;1.70;;;14.30;42.10;;;;;;5116975;27;20049;-65
2022/04/17 09:12:30;;;;;;;2.35;1.50;;;14.30;42.00;;;;;;5116972;27;20409;-65
2022/04/17 09:14:57;;;;;;;1.77;1.40;;;14.40;42.10;;;;;;5134297;27;20486;-65
2022/04/17 09:17:31;;;;;;;2.20;1.65;;;14.40;42.00;;;;;;5115913;27;20074;-62
2022/04/17 09:19:57;;;;;;;3.42;1.63;;;14.40;41.90;;;;;;5133944;27;20044;-64
2022/04/17 09:22:23;;;;;;;2.08;1.52;;;14.50;41.90;;;;;;5134042;27;20091;-62
2022/04/17 09:24:48;;;;;;;2.28;0.73;;;14.50;41.90;;;;;;5116720;27;20043;-65
2022/04/17 09:27:14;;;;;;;2.25;1.00;;;14.50;41.80;;;;;;5116084;27;20099;-64
2022/04/17 09:29:40;;;;;;;2.35;1.17;;;14.60;41.80;;;;;;5116133;27;20047;-66
2022/04/17 09:32:07;;;;;;;1.35;1.02;;;14.60;41.70;;;;;;5134713;27;20039;-65
2022/04/17 09:34:52;;;;;;;2.45;0.98;;;14.70;41.60;;;;;;5116055;27;20079;-64
2022/04/17 09:40:07;;;;;;;1.67;0.95;;;14.80;41.30;;;;;;5130999;27;21002;-63
2022/04/17 09:42:32;;;;;;;1.05;0.57;;;15.20;40.70;;;;;;5129511;28;20043;-60
2022/04/17 09:44:59;;;;;;;2.20;1.00;;;15.30;40.50;;;;;;5129119;28;20100;-61
2022/04/17 09:47:27;;;;;;;2.45;0.70;;;15.30;40.20;;;;;;5129356;27;20035;-64
2022/04/17 09:52:46;;;;;;;1.48;0.80;;;15.50;40.00;;;;;;5130354;27;20424;-63
2022/04/17 09:55:13;;;;;;;1.40;0.82;;;15.50;39.80;;;;;;5128956;28;20065;-60
2022/04/17 09:57:41;;;;;;;1.63;0.77;;;15.60;39.70;;;;;;5129286;28;20454;-63
2022/04/17 10:02:51;;;;;;;1.08;0.47;;;15.70;39.50;;;;;;5089424;27;20355;-64
2022/04/17 10:05:19;;;;;;;2.30;0.65;;;15.80;39.50;;;;;;5088346;28;20550;-63
2022/04/17 10:07:47;;;;;;;1.10;0.60;;;15.80;39.40;;;;;;5088601;28;20032;-64
2022/04/17 10:10:14;;;;;;;0.82;0.50;;;15.80;39.20;;;;;;5089628;28;20040;-64
2022/04/17 10:12:41;;;;;;;2.25;0.70;;;15.90;39.20;;;;;;5088582;28;20048;-64
2022/04/17 10:15:07;;;;;;;1.08;0.70;;;15.90;39.10;;;;;;5088221;28;20052;-64
2022/04/17 10:17:36;;;;;;;1.45;0.65;;;15.90;39.00;;;;;;5088230;28;20044;-64
2022/04/17 10:20:06;;;;;;;1.50;1.00;;;16.00;39.00;;;;;;5088147;28;20040;-64
2022/04/17 10:22:34;;;;;;;1.10;0.50;;;16.00;38.90;;;;;;5087728;28;20052;-66
2022/04/17 10:25:04;;;;;;;1.33;0.80;;;16.00;38.90;;;;;;5088141;28;20427;-65
2022/04/17 10:30:21;;;;;;;1.83;0.63;;;16.00;38.80;;;;;;5109931;27;20302;-59
2022/04/17 10:41:09;;;;;;;1.80;0.80;;;16.00;38.80;;;;;;5130361;27;20397;-60
2022/04/17 10:46:23;;;;;;;1.83;0.90;;;16.00;38.80;;;;;;5109594;27;1214443;-64
2022/04/17 10:51:30;;;;;;;1.95;1.00;;;16.00;38.80;;;;;;5089431;27;20360;-59
2022/04/17 10:59:19;;;;;;;2.25;0.68;;;16.00;38.90;;;;;;5130241;27;20354;-60
2022/04/17 11:04:28;;;;;;;2.15;0.73;;;15.90;38.90;;;;;;5151026;27;20353;-60
2022/04/17 11:10:07;;;;;;;1.25;0.65;;;15.90;39.00;;;;;;5130283;27;20357;-60
2022/04/17 11:12:47;;;;;;;0.80;0.40;;;15.80;39.00;;;;;;5130357;27;20444;-64
2022/04/17 11:17:52;;;;;;;1.38;0.45;;;15.80;39.10;;;;;;5160522;27;1172614;-64
2022/04/17 11:20:18;;;;;;;1.98;0.57;;;15.80;39.20;;;;;;5153087;27;20500;-60
2022/04/17 11:22:44;;;;;;;1.05;0.47;;;15.80;39.20;;;;;;5153392;27;20046;-64
2022/04/17 11:25:11;;;;;;;1.58;0.57;;;15.80;39.30;;;;;;5153213;27;20049;-60
2022/04/17 11:27:53;;;;;;;1.08;0.60;;;15.80;39.30;;;;;;5153358;27;20418;-63
2022/04/17 11:32:59;;;;;;;1.85;0.73;;;15.80;39.30;;;;;;5153270;27;1156017;-64
2022/04/17 11:35:26;;;;;;;1.02;0.40;;;15.80;39.40;;;;;;5153320;27;20078;-63
2022/04/17 11:37:55;;;;;;;2.65;0.60;;;15.80;39.40;;;;;;5153318;27;20038;-60
2022/04/17 11:40:24;;;;;;;1.20;0.60;;;15.80;39.40;;;;;;5153036;27;20042;-63
2022/04/17 11:42:52;;;;;;;1.40;0.50;;;15.80;39.40;;;;;;5152905;27;20121;-64
2022/04/17 11:45:23;;;;;;;1.55;0.47;;;15.80;39.40;;;;;;5153502;27;20049;-63
2022/04/17 11:47:50;;;;;;;1.67;0.55;;;15.80;39.30;;;;;;5152895;27;20546;-64
2022/04/17 11:50:21;;;;;;;1.20;0.47;;;15.80;39.40;;;;;;5171575;27;20502;-64
2022/04/17 11:52:55;;;;;;;1.52;0.43;;;15.80;39.30;;;;;;5152737;27;20481;-63
2022/04/17 11:55:26;;;;;;;1.48;0.60;;;15.80;39.30;;;;;;5152905;27;20054;-63
2022/04/17 11:57:51;;;;;;;1.27;0.68;;;15.80;39.40;;;;;;5153053;27;20046;-64
2022/04/17 12:00:17;;;;;;;0.88;0.40;;;15.80;39.40;;;;;;5171863;27;20027;-60
2022/04/17 12:02:43;;;;;;;0.82;0.40;;;15.80;39.30;;;;;;5171753;27;20110;-62
2022/04/17 12:05:10;;;;;;;1.60;0.60;;;15.80;39.30;;;;;;5153065;27;20049;-65
2022/04/17 12:07:36;;;;;;;0.90;0.43;;;15.80;39.30;;;;;;5171169;27;20080;-64
2022/04/17 12:10:10;;;;;;;1.55;0.43;;;15.80;39.30;;;;;;5152495;27;20076;-64
2022/04/17 12:12:38;;;;;;;1.10;0.43;;;15.80;39.20;;;;;;5171033;27;20043;-60
2022/04/17 12:15:05;;;;;;;1.08;0.50;;;15.80;39.20;;;;;;5171069;27;20058;-62
2022/04/17 12:17:33;;;;;;;1.00;0.50;;;15.80;39.10;;;;;;5152664;27;20061;-62
2022/04/17 12:19:59;;;;;;;1.23;0.50;;;15.90;39.20;;;;;;5152915;27;20155;-60
2022/04/17 12:22:26;;;;;;;1.50;0.60;;;15.80;39.10;;;;;;5152397;27;20050;-66
2022/04/17 12:24:53;;;;;;;0.68;0.43;;;15.90;39.10;;;;;;5152390;27;20076;-64
2022/04/17 12:27:20;;;;;;;0.85;0.70;;;15.90;39.10;;;;;;5170780;27;20138;-63
2022/04/17 12:29:56;;;;;;;1.88;0.60;;;15.80;39.00;;;;;;5152403;27;20122;-60
2022/04/17 12:32:23;;;;;;;1.60;0.40;;;15.90;38.90;;;;;;5151647;27;20058;-64
2022/04/17 12:35:04;;;;;;;1.05;0.40;;;15.90;39.00;;;;;;5151919;27;20493;-64
2022/04/17 12:37:33;;;;;;;0.98;0.40;;;15.90;38.90;;;;;;5170425;27;20034;-62
2022/04/17 12:40:21;;;;;;;1.25;0.40;;;15.90;38.90;;;;;;5151908;27;20117;-64
2022/04/17 12:42:47;;;;;;;1.35;0.50;;;15.90;38.80;;;;;;5146804;27;20050;-62
2022/04/17 12:45:28;;;;;;;1.23;0.50;;;15.90;38.90;;;;;;5138021;27;20117;-64
2022/04/17 12:48:05;;;;;;;0.75;0.38;;;16.00;38.80;;;;;;5156377;27;20087;-64
2022/04/17 12:50:31;;;;;;;1.23;0.45;;;15.90;38.80;;;;;;5137765;27;20540;-65
2022/04/17 12:53:00;;;;;;;0.75;0.40;;;15.90;38.90;;;;;;5156377;27;20051;-60
2022/04/17 12:55:30;;;;;;;2.30;0.43;;;15.90;38.80;;;;;;5156308;27;20034;-63
2022/04/17 12:57:59;;;;;;;0.88;0.43;;;16.00;38.80;;;;;;5156298;27;20038;-65
2022/04/17 13:00:27;;;;;;;0.88;0.30;;;15.90;38.70;;;;;;5137937;27;20485;-62
2022/04/17 13:03:13;;;;;;;1.52;0.50;;;16.00;38.70;;;;;;5137563;27;20042;-61
2022/04/17 13:05:40;;;;;;;1.65;0.40;;;16.00;38.60;;;;;;5137825;27;20038;-64
2022/04/17 13:08:07;;;;;;;1.25;0.50;;;16.00;38.60;;;;;;5156044;27;20039;-64
2022/04/17 13:10:33;;;;;;;0.82;0.45;;;16.00;38.60;;;;;;5155993;27;20049;-60
2022/04/17 13:13:00;;;;;;;0.75;0.60;;;16.00;38.60;;;;;;5137596;27;20073;-64
2022/04/17 13:15:32;;;;;;;1.23;0.60;;;16.10;38.60;;;;;;5155921;27;20121;-63
2022/04/17 13:17:58;;;;;;;0.73;0.40;;;16.00;38.50;;;;;;5137225;27;20114;-64
2022/04/17 13:20:27;;;;;;;1.70;0.43;;;16.10;38.50;;;;;;5155833;27;20118;-65
2022/04/17 13:22:53;;;;;;;1.15;0.35;;;16.10;38.50;;;;;;5137433;27;20063;-64
2022/04/17 13:25:20;;;;;;;1.15;0.52;;;16.10;39.20;;;;;;5137198;27;20049;-61
2022/04/17 13:27:47;;;;;;;1.00;0.50;;;16.10;38.40;;;;;;5137076;27;20493;-60
2022/04/17 13:30:14;;;;;;;0.80;0.40;;;16.10;38.40;;;;;;5137365;27;20088;-66
2022/04/17 13:32:40;;;;;;;0.73;0.40;;;16.10;38.30;;;;;;5136835;27;20069;-64
2022/04/17 13:35:12;;;;;;;1.15;0.40;;;16.10;38.30;;;;;;5155429;27;20110;-64
2022/04/17 13:40:24;;;;;;;1.73;0.40;;;16.20;38.30;;;;;;5155235;27;20046;-64
2022/04/17 13:42:50;;;;;;;1.38;0.50;;;16.20;38.30;;;;;;5155418;27;20043;-65
2022/04/17 13:45:16;;;;;;;0.98;0.30;;;16.20;38.30;;;;;;5137063;27;20034;-63
2022/04/17 13:47:41;;;;;;;1.10;0.50;;;16.20;38.20;;;;;;5155343;27;20394;-64
2022/04/17 13:50:09;;;;;;;1.40;0.55;;;16.20;38.20;;;;;;5137001;27;20117;-64
2022/04/17 13:52:36;;;;;;;1.40;0.30;;;16.20;38.20;;;;;;5136593;27;20070;-64